New York, NY

9:19 AM EDT on September 02, 2015 (GMT -0400)
Murray Hill | | Change Station
CLOSE
Current Station
Personal Weather Station
Location: New York, NY
Elevation: 98 ft
Nearby Weather Stations

Elev 98 ft 40.75 °N, 73.98 °W | Updated 4 seconds ago

Haze
Haze
77.4 °F
Feels Like 79 °F
N
3.0
Wind Variable Wind from West
Gusts 4.0 mph

Today
High -- | Low -- °F
--% Chance of Precip.
Yesterday
High -- | Low -- °F
Precip. -- in
6:23 AM 7:27 PM
Waning Gibbous, 80% visible
Pressure 30.03 in
Visibility 6.0 miles
Clouds Clear
Heat Index 79 °F
Dew Point 68 °F
Humidity 73%
Rainfall 0.00 in
Snow Depth Not available.
UV 2 out of 12
Pollen 10.10 out of 12
Air Quality Not available.
Flu Activity Not available.
METAR KNYC 021251Z AUTO VRB03KT 6SM HZ CLR 26/18 A3006 RMK AO2 SLP169 T02610183 $
Pressure 30.03 in
Visibility 6.0 miles
Clouds Clear
Heat Index 79 °F
Dew Point 68 °F
Humidity 73%
Rainfall 0.00 in
Snow Depth Not available.
UV 2 out of 12
Pollen 10.10 out of 12
Air Quality Not available.
Flu Activity Not available.
METAR KNYC 021251Z AUTO VRB03KT 6SM HZ CLR 26/18 A3006 RMK AO2 SLP169 T02610183 $

10-Day Weather Forecast

×

Almanac

Astronomy

Sep. 02, 2015 Rise Set
Actual Time
Civil Twilight
Nautical Twilight
Astronomical Twilight
Moon
Length of Visible Light
Length of Day
Tomorrow will be .
, % of the Moon is Illuminated

Today's Extremes

State Highs State Lows

Community

WunderPhotos

Upload Photos

1,851,750 photos uploaded!

WunderBlogs® & News

Nearby

Air Quality

  Air Quality AQ Index Pollutant
Not available.

Snow Depth

Station Depth Elevation

Earthquake Activity

City Distance Mag. Time & Date
Minimum magnitude displayed is 2.5.

Coastal Water Temperatures

Place Temperature

Stations

Nearby Weather Stations

Station Location Temp. Windchill Dew Point Humidity Wind Precip. Elev Updated Type